createdAt,value
2023-03-17T00:00:43.477Z,12.55
2023-03-17T00:03:23.416Z,10.77
2023-03-17T00:05:51.000Z,12.20
2023-03-17T00:08:27.241Z,9.23
2023-03-17T00:10:55.195Z,9.82
2023-03-17T00:13:23.906Z,11.95
2023-03-17T00:15:59.326Z,12.32
2023-03-17T00:18:26.687Z,9.52
2023-03-17T00:20:57.142Z,11.30
2023-03-17T00:23:25.388Z,10.70
2023-03-17T00:25:54.161Z,11.35
2023-03-17T00:28:23.756Z,12.77
2023-03-17T00:30:56.895Z,9.20
2023-03-17T00:33:33.267Z,12.20
2023-03-17T00:36:01.400Z,10.98
2023-03-17T00:38:31.489Z,11.15
2023-03-17T00:40:58.717Z,11.98
2023-03-17T00:43:25.615Z,10.60
2023-03-17T00:45:52.615Z,10.05
2023-03-17T00:48:21.352Z,11.18
2023-03-17T00:50:49.768Z,11.02
2023-03-17T00:53:19.240Z,12.63
2023-03-17T00:55:46.882Z,10.45
2023-03-17T00:58:15.437Z,11.60
2023-03-17T01:00:42.453Z,10.30
2023-03-17T01:03:12.164Z,13.82
2023-03-17T01:05:39.959Z,10.93
2023-03-17T01:08:10.156Z,11.60
2023-03-17T01:10:37.293Z,10.80
2023-03-17T01:13:05.848Z,11.77
2023-03-17T01:15:34.437Z,13.68
2023-03-17T01:18:02.755Z,13.43
2023-03-17T01:20:32.934Z,11.50
2023-03-17T01:23:01.463Z,12.90
2023-03-17T01:25:29.094Z,11.48
2023-03-17T01:28:00.031Z,13.35
2023-03-17T01:30:30.332Z,11.10
2023-03-17T01:32:59.135Z,12.80
2023-03-17T01:35:29.407Z,10.13
2023-03-17T01:37:57.258Z,11.23
2023-03-17T01:40:32.282Z,12.13
2023-03-17T01:43:08.310Z,10.80
2023-03-17T01:46:06.720Z,11.30
2023-03-17T01:48:56.440Z,10.15
2023-03-17T01:51:41.267Z,10.45
2023-03-17T01:54:11.879Z,12.05
2023-03-17T01:56:42.097Z,12.80
2023-03-17T01:59:17.207Z,11.52
2023-03-17T02:01:47.364Z,13.43
2023-03-17T02:04:16.165Z,10.80
2023-03-17T02:06:56.820Z,10.98
2023-03-17T02:09:24.470Z,10.63
2023-03-17T02:11:51.970Z,12.05
2023-03-17T02:14:18.987Z,10.43
2023-03-17T02:16:46.563Z,12.27
2023-03-17T02:19:17.132Z,10.80
2023-03-17T02:21:49.912Z,12.38
2023-03-17T02:24:39.016Z,10.55
2023-03-17T02:27:23.122Z,9.25
2023-03-17T02:29:50.889Z,9.98
2023-03-17T02:32:19.100Z,12.60
2023-03-17T02:34:47.723Z,13.18
2023-03-17T02:37:15.990Z,10.77
2023-03-17T02:39:43.368Z,9.10
2023-03-17T02:42:10.960Z,12.18
2023-03-17T02:44:38.289Z,10.88
2023-03-17T02:47:06.537Z,11.38
2023-03-17T02:49:34.764Z,10.65
2023-03-17T02:52:02.566Z,12.13
2023-03-17T02:54:29.617Z,11.68
2023-03-17T02:56:56.665Z,9.15
2023-03-17T02:59:23.585Z,7.40
2023-03-17T03:01:50.865Z,9.30
2023-03-17T03:04:19.911Z,9.23
2023-03-17T03:06:47.686Z,13.20
2023-03-17T03:09:15.390Z,8.77
2023-03-17T03:11:42.928Z,10.68
2023-03-17T03:14:10.444Z,10.77
2023-03-17T03:16:38.409Z,9.80
2023-03-17T03:19:06.697Z,8.65
2023-03-17T03:21:33.772Z,9.43
2023-03-17T03:24:00.889Z,11.30
2023-03-17T03:26:28.485Z,7.53
2023-03-17T03:28:57.392Z,9.63
2023-03-17T03:31:24.646Z,8.52
2023-03-17T03:33:51.658Z,8.32
2023-03-17T03:36:19.268Z,9.43
2023-03-17T03:38:46.697Z,8.10
2023-03-17T03:41:14.109Z,9.38
2023-03-17T03:43:41.432Z,7.03
2023-03-17T03:46:09.088Z,9.10
2023-03-17T03:48:36.010Z,8.52
2023-03-17T03:51:03.195Z,7.72
2023-03-17T03:53:31.072Z,7.15
2023-03-17T03:55:58.016Z,9.35
2023-03-17T03:58:25.024Z,7.88
2023-03-17T04:00:52.494Z,8.77
2023-03-17T04:03:19.552Z,8.93
2023-03-17T04:05:46.540Z,10.73
2023-03-17T04:08:13.495Z,8.57
2023-03-17T04:10:43.335Z,8.80
2023-03-17T04:13:10.379Z,10.57
2023-03-17T04:15:40.184Z,8.75
2023-03-17T04:18:07.229Z,8.23
2023-03-17T04:20:34.348Z,7.13
2023-03-17T04:23:01.920Z,7.38
2023-03-17T04:25:28.905Z,9.73
2023-03-17T04:27:56.041Z,8.65
2023-03-17T04:30:22.999Z,8.10
2023-03-17T04:32:51.136Z,7.75
2023-03-17T04:35:21.544Z,9.15
2023-03-17T04:37:51.044Z,9.50
2023-03-17T04:40:19.120Z,9.20
2023-03-17T04:42:46.415Z,7.57
2023-03-17T04:45:17.552Z,9.23
2023-03-17T04:47:47.733Z,11.25
2023-03-17T04:50:15.877Z,15.07
2023-03-17T04:52:42.761Z,12.10
2023-03-17T04:55:10.385Z,8.63
2023-03-17T04:57:37.763Z,10.50
2023-03-17T05:00:07.189Z,7.97
2023-03-17T05:02:34.338Z,9.13
2023-03-17T05:05:02.068Z,10.02
2023-03-17T05:07:28.966Z,9.77
2023-03-17T05:09:58.700Z,8.93
2023-03-17T05:12:26.066Z,8.18
2023-03-17T05:14:52.994Z,8.13
2023-03-17T05:17:20.032Z,9.68
2023-03-17T05:19:47.211Z,8.02
2023-03-17T05:22:14.195Z,9.40
2023-03-17T05:24:41.107Z,9.18
2023-03-17T05:27:08.108Z,8.75
2023-03-17T05:29:36.421Z,8.05
2023-03-17T05:32:03.478Z,8.55
2023-03-17T05:34:31.250Z,8.20
2023-03-17T05:36:58.208Z,9.30
2023-03-17T05:39:25.238Z,11.20
2023-03-17T05:41:52.316Z,7.78
2023-03-17T05:44:20.393Z,10.65
2023-03-17T05:46:47.597Z,8.38
2023-03-17T05:49:15.311Z,11.48
2023-03-17T05:51:42.279Z,8.23
2023-03-17T05:54:09.433Z,7.95
2023-03-17T05:56:36.562Z,8.43
2023-03-17T05:59:07.476Z,8.45
2023-03-17T06:01:34.377Z,8.73
2023-03-17T06:04:01.800Z,8.45
2023-03-17T06:06:31.209Z,8.07
2023-03-17T06:08:58.183Z,9.93
2023-03-17T06:11:25.255Z,9.50
2023-03-17T06:13:52.248Z,11.32
2023-03-17T06:16:19.882Z,12.52
2023-03-17T06:18:46.936Z,8.65
2023-03-17T06:21:14.070Z,9.10
2023-03-17T06:23:41.049Z,9.52
2023-03-17T06:26:07.996Z,10.80
2023-03-17T06:28:34.984Z,9.00
2023-03-17T06:31:02.096Z,11.88
2023-03-17T06:33:29.146Z,16.70
2023-03-17T06:35:58.580Z,12.77
2023-03-17T06:38:25.539Z,8.65
2023-03-17T06:40:52.497Z,9.35
2023-03-17T06:43:19.746Z,9.63
2023-03-17T06:45:47.505Z,9.20
2023-03-17T06:48:14.395Z,12.15
2023-03-17T06:50:41.583Z,9.88
2023-03-17T06:53:11.425Z,10.30
2023-03-17T06:55:38.518Z,13.10
2023-03-17T06:58:05.583Z,12.70
2023-03-17T07:00:32.943Z,11.40
2023-03-17T07:02:59.853Z,18.08
2023-03-17T07:05:28.081Z,13.32
2023-03-17T07:07:55.006Z,11.52
2023-03-17T07:10:23.110Z,10.68
2023-03-17T07:12:50.074Z,9.80
2023-03-17T07:15:18.835Z,11.68
2023-03-17T07:17:46.964Z,9.57
2023-03-17T07:20:14.107Z,9.63
2023-03-17T07:22:41.682Z,9.07
2023-03-17T07:25:27.446Z,9.90
2023-03-17T07:27:57.221Z,10.43
2023-03-17T07:30:24.178Z,12.95
2023-03-17T07:32:51.274Z,9.05
2023-03-17T07:35:19.269Z,12.52
2023-03-17T07:37:46.236Z,9.32
2023-03-17T07:40:13.464Z,9.55
2023-03-17T07:42:40.342Z,10.02
2023-03-17T07:45:08.052Z,7.50
2023-03-17T07:47:35.029Z,12.77
2023-03-17T07:50:20.824Z,10.30
2023-03-17T07:52:47.790Z,11.93
2023-03-17T07:55:15.839Z,9.55
2023-03-17T07:57:42.815Z,9.10
2023-03-17T08:00:10.625Z,9.93
2023-03-17T08:02:41.094Z,8.77
2023-03-17T08:05:08.825Z,8.27
2023-03-17T08:07:37.591Z,10.73
2023-03-17T08:10:06.173Z,7.97
2023-03-17T08:12:33.456Z,10.98
2023-03-17T08:15:00.472Z,17.42
2023-03-17T08:17:27.549Z,9.23
2023-03-17T08:19:55.165Z,8.35
2023-03-17T08:22:23.157Z,6.60
2023-03-17T08:24:50.167Z,6.88
2023-03-17T08:27:19.042Z,8.30
2023-03-17T08:29:45.999Z,7.22
2023-03-17T08:32:13.419Z,8.48
2023-03-17T08:34:40.770Z,7.15
2023-03-17T08:37:11.276Z,7.65
2023-03-17T08:39:38.369Z,7.88
2023-03-17T08:42:06.026Z,11.05
2023-03-17T08:44:33.629Z,9.10
2023-03-17T08:47:00.995Z,8.43
2023-03-17T08:49:28.481Z,10.35
2023-03-17T08:51:56.003Z,7.57
2023-03-17T08:54:23.054Z,9.57
2023-03-17T08:56:49.947Z,8.05
2023-03-17T08:59:17.107Z,7.97
2023-03-17T09:01:45.512Z,7.68
2023-03-17T09:04:12.465Z,10.65
2023-03-17T09:06:44.103Z,12.43
2023-03-17T09:09:16.860Z,12.65
2023-03-17T09:11:43.831Z,8.50
2023-03-17T09:14:11.424Z,8.13
2023-03-17T09:16:38.744Z,10.27
2023-03-17T09:19:05.716Z,8.27
2023-03-17T09:21:32.661Z,8.13
2023-03-17T09:24:02.278Z,7.75
2023-03-17T09:26:29.539Z,7.50
2023-03-17T09:28:56.432Z,10.57
2023-03-17T09:31:23.471Z,8.50
2023-03-17T09:33:52.379Z,8.45
2023-03-17T09:36:20.420Z,9.05
2023-03-17T09:38:47.355Z,11.88
2023-03-17T09:41:19.874Z,11.73
2023-03-17T09:43:52.896Z,10.57
2023-03-17T09:46:22.603Z,8.77
2023-03-17T09:49:08.504Z,8.18
2023-03-17T09:51:35.983Z,9.07
2023-03-17T09:54:25.460Z,9.88
2023-03-17T09:57:01.680Z,12.15
2023-03-17T09:59:36.879Z,8.32
2023-03-17T10:02:15.905Z,7.43
2023-03-17T10:04:44.897Z,9.85
2023-03-17T10:07:19.342Z,11.13
2023-03-17T10:10:02.996Z,8.07
2023-03-17T10:12:41.698Z,9.60
2023-03-17T10:15:16.730Z,9.07
2023-03-17T10:17:43.803Z,7.53
2023-03-17T10:20:25.266Z,7.93
2023-03-17T10:22:59.349Z,8.07
2023-03-17T10:25:31.876Z,8.73
2023-03-17T10:28:01.739Z,9.50
2023-03-17T10:30:33.714Z,8.07
2023-03-17T10:33:03.284Z,6.82
2023-03-17T10:35:36.137Z,8.63
2023-03-17T10:38:16.258Z,7.07
2023-03-17T10:40:47.939Z,12.38
2023-03-17T10:43:21.683Z,11.73
2023-03-17T10:45:59.501Z,9.55
2023-03-17T10:48:27.291Z,11.05
2023-03-17T10:50:58.618Z,8.25
2023-03-17T10:53:30.304Z,10.32
2023-03-17T10:56:00.936Z,9.07
2023-03-17T10:58:48.950Z,12.70
2023-03-17T11:01:24.978Z,9.35
2023-03-17T11:03:52.039Z,10.80
2023-03-17T11:06:25.929Z,10.02
2023-03-17T11:08:57.588Z,8.40
2023-03-17T11:11:29.733Z,9.07
2023-03-17T11:14:04.939Z,10.38
2023-03-17T11:16:38.229Z,11.77
2023-03-17T11:19:12.680Z,9.30
2023-03-17T11:22:04.982Z,8.98
2023-03-17T11:24:34.212Z,10.02
2023-03-17T11:27:12.648Z,9.82
2023-03-17T11:30:10.280Z,30.48
2023-03-17T11:32:57.629Z,14.35
2023-03-17T11:35:38.351Z,10.15
2023-03-17T11:38:26.148Z,10.20
2023-03-17T11:41:04.961Z,12.82
2023-03-17T11:43:53.045Z,13.15
2023-03-17T11:46:43.960Z,11.27
2023-03-17T11:49:24.569Z,11.70
2023-03-17T11:52:06.190Z,11.00
2023-03-17T11:54:58.976Z,11.32
2023-03-17T11:57:35.390Z,9.65
2023-03-17T12:00:07.564Z,11.43
2023-03-17T12:03:07.143Z,9.55
2023-03-17T12:05:35.795Z,9.60
2023-03-17T12:08:17.940Z,13.25
2023-03-17T12:10:54.628Z,9.48
2023-03-17T12:13:30.409Z,11.55
2023-03-17T12:18:48.726Z,11.50
2023-03-17T12:21:37.319Z,11.27
2023-03-17T12:24:04.368Z,10.82
2023-03-17T12:26:38.841Z,9.50
2023-03-17T12:29:15.838Z,12.65
2023-03-17T12:31:52.444Z,12.88
2023-03-17T12:35:09.090Z,9.65
2023-03-17T12:37:36.778Z,11.05
2023-03-17T12:40:13.022Z,10.57
2023-03-17T12:43:03.534Z,13.02
2023-03-17T12:46:11.168Z,12.95
2023-03-17T12:48:44.262Z,13.40
2023-03-17T12:51:50.145Z,12.60
2023-03-17T12:54:33.285Z,12.40
2023-03-17T12:57:20.204Z,11.90
2023-03-17T12:59:50.422Z,12.60
2023-03-17T13:02:31.696Z,9.63
2023-03-17T13:05:01.059Z,13.05
2023-03-17T13:07:37.101Z,13.32
2023-03-17T13:10:04.065Z,13.55
2023-03-17T13:12:39.816Z,13.73
2023-03-17T13:18:15.559Z,12.05
2023-03-17T13:21:10.383Z,12.07
2023-03-17T13:23:47.324Z,13.63
2023-03-17T13:26:19.422Z,13.18
2023-03-17T13:28:51.728Z,13.00
2023-03-17T13:31:34.089Z,13.20
2023-03-17T13:34:18.084Z,14.13
2023-03-17T13:37:07.504Z,11.60
2023-03-17T13:39:56.823Z,14.30
2023-03-17T13:42:43.389Z,13.48
2023-03-17T13:45:10.379Z,13.65
2023-03-17T13:47:42.226Z,13.68
2023-03-17T13:50:24.980Z,13.98
2023-03-17T13:53:04.980Z,12.77
2023-03-17T13:55:35.113Z,14.43
2023-03-17T13:58:10.905Z,11.60
2023-03-17T14:00:50.899Z,11.38
2023-03-17T14:03:30.825Z,14.88
2023-03-17T14:06:01.231Z,14.95
2023-03-17T14:08:36.800Z,15.13
2023-03-17T14:11:09.024Z,14.93
2023-03-17T14:13:45.320Z,12.65
2023-03-17T14:16:20.023Z,13.75
2023-03-17T14:18:50.425Z,14.10
2023-03-17T14:21:32.112Z,11.98
2023-03-17T14:24:02.152Z,13.60
2023-03-17T14:26:31.225Z,14.60
2023-03-17T14:29:04.034Z,14.05
2023-03-17T14:31:31.496Z,13.63
2023-03-17T14:34:00.464Z,14.48
2023-03-17T14:36:28.575Z,13.23
2023-03-17T14:38:56.883Z,15.63
2023-03-17T14:41:29.255Z,16.20
2023-03-17T14:44:01.480Z,17.27
2023-03-17T14:46:34.217Z,14.90
2023-03-17T14:49:04.453Z,14.48
2023-03-17T14:51:36.130Z,14.73
2023-03-17T14:54:22.698Z,13.40
2023-03-17T14:56:57.774Z,15.02
2023-03-17T14:59:34.018Z,14.52
2023-03-17T15:02:08.020Z,18.42
2023-03-17T15:04:35.350Z,15.63
2023-03-17T15:07:07.612Z,14.45
2023-03-17T15:09:37.584Z,17.63
2023-03-17T15:12:18.941Z,15.85
2023-03-17T15:14:46.650Z,16.25
2023-03-17T15:17:21.108Z,15.77
2023-03-17T15:19:53.846Z,14.20
2023-03-17T15:22:22.464Z,14.63
2023-03-17T15:25:17.678Z,17.20
2023-03-17T15:27:45.303Z,13.98
2023-03-17T15:30:13.563Z,16.27
2023-03-17T15:32:40.836Z,18.27
2023-03-17T15:35:11.381Z,14.40
2023-03-17T15:37:39.190Z,18.42
2023-03-17T15:40:07.154Z,14.88
2023-03-17T15:42:36.379Z,37.65
2023-03-17T15:45:04.422Z,11.75
2023-03-17T15:47:33.722Z,15.15
2023-03-17T15:50:12.229Z,14.15
2023-03-17T15:52:39.154Z,14.80
2023-03-17T15:55:14.107Z,13.30
2023-03-17T15:57:42.870Z,15.65
2023-03-17T16:00:21.813Z,16.13
2023-03-17T16:02:53.983Z,16.20
2023-03-17T16:05:33.555Z,13.65
2023-03-17T16:08:00.672Z,15.95
2023-03-17T16:10:30.853Z,14.50
2023-03-17T16:12:58.805Z,18.30
2023-03-17T16:15:28.240Z,15.05
2023-03-17T16:17:59.245Z,16.42
2023-03-17T16:20:33.802Z,16.55
2023-03-17T16:23:23.027Z,34.72
2023-03-17T16:25:50.424Z,16.52
2023-03-17T16:28:23.156Z,14.45
2023-03-17T16:30:51.526Z,15.10
2023-03-17T16:33:23.869Z,13.85
2023-03-17T16:35:53.363Z,14.10
2023-03-17T16:38:24.540Z,18.20
2023-03-17T16:40:54.284Z,14.93
2023-03-17T16:43:33.169Z,14.85
2023-03-17T16:46:02.975Z,14.32
2023-03-17T16:48:31.140Z,15.82
2023-03-17T16:50:58.905Z,13.43
2023-03-17T16:53:28.589Z,16.65
2023-03-17T16:55:56.130Z,14.32
2023-03-17T16:58:25.629Z,15.80
2023-03-17T17:01:03.431Z,16.08
2023-03-17T17:03:31.402Z,18.27
2023-03-17T17:05:58.698Z,16.05
2023-03-17T17:08:28.303Z,14.57
2023-03-17T17:10:55.468Z,19.27
2023-03-17T17:13:22.348Z,14.73
2023-03-17T17:15:49.592Z,15.30
2023-03-17T17:18:20.531Z,19.23
2023-03-17T17:20:50.412Z,17.15
2023-03-17T17:23:19.975Z,18.40
2023-03-17T17:25:47.081Z,15.65
2023-03-17T17:28:16.692Z,20.98
2023-03-17T17:30:47.671Z,14.75
2023-03-17T17:33:16.338Z,16.25
2023-03-17T17:35:44.485Z,13.75
2023-03-17T17:38:18.081Z,17.73
2023-03-17T17:40:45.158Z,18.08
2023-03-17T17:43:12.422Z,14.13
2023-03-17T17:45:39.595Z,16.90
2023-03-17T17:48:06.539Z,17.67
2023-03-17T17:50:34.112Z,15.15
2023-03-17T17:53:05.440Z,15.18
2023-03-17T17:55:33.774Z,14.95
2023-03-17T17:58:01.206Z,16.77
2023-03-17T18:00:28.992Z,13.90
2023-03-17T18:02:56.331Z,13.77
2023-03-17T18:05:23.542Z,20.13
2023-03-17T18:07:50.736Z,13.60
2023-03-17T18:10:22.479Z,15.45
2023-03-17T18:12:49.651Z,17.38
2023-03-17T18:15:17.733Z,16.13
2023-03-17T18:17:44.633Z,15.93
2023-03-17T18:20:13.530Z,14.40
2023-03-17T18:22:41.098Z,12.95
2023-03-17T18:25:10.216Z,14.60
2023-03-17T18:27:38.575Z,14.40
2023-03-17T18:30:08.623Z,11.55
2023-03-17T18:32:36.344Z,17.00
2023-03-17T18:35:09.267Z,13.90
2023-03-17T18:37:36.992Z,17.20
2023-03-17T18:40:14.396Z,15.85
2023-03-17T18:42:42.392Z,14.95
2023-03-17T18:45:11.601Z,16.17
2023-03-17T18:47:39.142Z,14.18
2023-03-17T18:50:08.410Z,14.35
2023-03-17T18:52:37.287Z,14.82
2023-03-17T18:55:05.279Z,15.23
2023-03-17T18:57:32.367Z,13.65
2023-03-17T18:59:59.328Z,15.73
2023-03-17T19:02:26.320Z,14.00
2023-03-17T19:04:53.257Z,13.98
2023-03-17T19:07:22.218Z,21.95
2023-03-17T19:09:49.266Z,15.25
2023-03-17T19:12:16.572Z,14.35
2023-03-17T19:14:43.828Z,12.68
2023-03-17T19:17:10.785Z,14.40
2023-03-17T19:19:37.886Z,14.32
2023-03-17T19:22:09.062Z,17.25
2023-03-17T19:24:37.595Z,14.40
2023-03-17T19:27:05.214Z,14.45
2023-03-17T19:29:33.345Z,17.80
2023-03-17T19:32:00.687Z,16.52
2023-03-17T19:34:27.918Z,14.85
2023-03-17T19:36:54.859Z,12.05
2023-03-17T19:39:22.193Z,13.73
2023-03-17T19:41:52.761Z,13.75
2023-03-17T19:44:19.742Z,18.98
2023-03-17T19:46:46.725Z,14.45
2023-03-17T19:49:13.879Z,15.13
2023-03-17T19:51:41.902Z,18.13
2023-03-17T19:54:11.172Z,16.90
2023-03-17T19:56:38.911Z,15.30
2023-03-17T19:59:09.064Z,16.90
2023-03-17T20:01:37.870Z,18.48
2023-03-17T20:04:06.904Z,14.70
2023-03-17T20:06:34.683Z,17.75
2023-03-17T20:09:04.204Z,13.52
2023-03-17T20:11:34.003Z,15.70
2023-03-17T20:14:02.718Z,16.38
2023-03-17T20:16:33.477Z,19.50
2023-03-17T20:19:01.464Z,16.92
2023-03-17T20:21:28.644Z,16.58
2023-03-17T20:23:56.276Z,17.67
2023-03-17T20:26:24.536Z,17.13
2023-03-17T20:28:51.694Z,18.50
2023-03-17T20:31:19.297Z,20.08
2023-03-17T20:33:46.375Z,18.67
2023-03-17T20:36:14.076Z,17.90
2023-03-17T20:38:43.609Z,23.92
2023-03-17T20:41:17.233Z,16.90
2023-03-17T20:43:45.032Z,16.52
2023-03-17T20:46:23.658Z,17.20
2023-03-17T20:48:58.691Z,15.88
2023-03-17T20:51:26.527Z,17.77
2023-03-17T20:53:55.008Z,18.70
2023-03-17T20:56:23.702Z,23.73
2023-03-17T20:58:53.197Z,16.45
2023-03-17T21:01:21.461Z,15.93
2023-03-17T21:03:48.843Z,16.42
2023-03-17T21:06:16.456Z,20.58
2023-03-17T21:08:43.392Z,18.95
2023-03-17T21:11:17.148Z,20.40
2023-03-17T21:13:44.457Z,22.40
2023-03-17T21:16:20.321Z,23.50
2023-03-17T21:18:48.278Z,21.70
2023-03-17T21:21:16.509Z,21.40
2023-03-17T21:23:44.237Z,25.20
2023-03-17T21:26:11.941Z,20.13
2023-03-17T21:28:41.384Z,24.92
2023-03-17T21:31:09.750Z,20.40
2023-03-17T21:33:37.124Z,29.85
2023-03-17T21:36:05.945Z,22.52
2023-03-17T21:38:33.032Z,19.92
2023-03-17T21:41:20.073Z,23.20
2023-03-17T21:43:47.166Z,23.40
2023-03-17T21:46:14.487Z,22.98
2023-03-17T21:48:41.521Z,20.27
2023-03-17T21:51:08.619Z,21.13
2023-03-17T21:53:35.664Z,20.33
2023-03-17T21:56:02.602Z,20.58
2023-03-17T21:58:29.571Z,20.40
2023-03-17T22:00:56.606Z,20.67
2023-03-17T22:03:23.618Z,20.67
2023-03-17T22:05:50.782Z,22.45
2023-03-17T22:08:18.309Z,21.77
2023-03-17T22:10:45.329Z,20.95
2023-03-17T22:13:12.753Z,58.13
2023-03-17T22:15:39.715Z,26.15
2023-03-17T22:18:06.926Z,23.05
2023-03-17T22:20:33.895Z,29.83
2023-03-17T22:23:01.438Z,23.48
2023-03-17T22:25:29.846Z,21.98
2023-03-17T22:27:57.043Z,23.08
2023-03-17T22:30:23.960Z,22.58
2023-03-17T22:32:53.237Z,24.58
2023-03-17T22:35:21.474Z,22.67
2023-03-17T22:37:48.390Z,22.67
2023-03-17T22:40:19.076Z,23.95
2023-03-17T22:42:46.360Z,25.73
2023-03-17T22:45:13.344Z,25.50
2023-03-17T22:47:40.382Z,22.33
2023-03-17T22:50:08.153Z,28.27
2023-03-17T22:52:36.665Z,26.15
2023-03-17T22:55:04.072Z,25.08
2023-03-17T22:57:31.015Z,28.15
2023-03-17T22:59:58.371Z,29.25
2023-03-17T23:02:26.245Z,27.73
2023-03-17T23:04:53.516Z,30.85
2023-03-17T23:07:20.669Z,26.23
2023-03-17T23:09:47.927Z,27.95
2023-03-17T23:12:15.006Z,28.88
2023-03-17T23:14:42.010Z,29.10
2023-03-17T23:17:13.173Z,29.63
2023-03-17T23:19:40.063Z,26.50
2023-03-17T23:22:07.067Z,36.65
2023-03-17T23:24:33.974Z,29.17
2023-03-17T23:27:00.914Z,31.42
2023-03-17T23:29:30.389Z,27.70
2023-03-17T23:31:57.274Z,29.55
2023-03-17T23:34:24.373Z,30.20
2023-03-17T23:36:51.632Z,27.52
2023-03-17T23:39:18.638Z,29.48
2023-03-17T23:41:45.532Z,30.33
2023-03-17T23:44:12.444Z,26.38
2023-03-17T23:46:39.379Z,30.50
2023-03-17T23:49:10.366Z,29.45
2023-03-17T23:51:39.871Z,31.05
2023-03-17T23:54:07.767Z,29.13
2023-03-17T23:56:35.530Z,28.65
2023-03-17T23:59:04.000Z,30.20
